sensor_id;sensor_type;location;lat;lon;timestamp;P1;durP1;ratioP1;P2;durP2;ratioP2
22236;SDS011;11287;48.122;11.536;2022-08-19T00:00:24;6.75;;;6.15;;
22236;SDS011;11287;48.122;11.536;2022-08-19T00:02:49;7.22;;;5.82;;
22236;SDS011;11287;48.122;11.536;2022-08-19T00:05:15;8.70;;;5.85;;
22236;SDS011;11287;48.122;11.536;2022-08-19T00:07:41;6.88;;;6.00;;
22236;SDS011;11287;48.122;11.536;2022-08-19T00:10:08;6.70;;;6.00;;
22236;SDS011;11287;48.122;11.536;2022-08-19T00:12:34;6.80;;;6.00;;
22236;SDS011;11287;48.122;11.536;2022-08-19T00:15:00;8.27;;;6.47;;
22236;SDS011;11287;48.122;11.536;2022-08-19T00:17:25;7.72;;;6.25;;
22236;SDS011;11287;48.122;11.536;2022-08-19T00:19:51;7.13;;;6.13;;
22236;SDS011;11287;48.122;11.536;2022-08-19T00:22:16;7.40;;;6.20;;
22236;SDS011;11287;48.122;11.536;2022-08-19T00:24:43;10.18;;;7.32;;
22236;SDS011;11287;48.122;11.536;2022-08-19T00:27:10;8.93;;;7.80;;
22236;SDS011;11287;48.122;11.536;2022-08-19T00:29:36;10.48;;;7.43;;
22236;SDS011;11287;48.122;11.536;2022-08-19T00:32:02;8.32;;;7.18;;
22236;SDS011;11287;48.122;11.536;2022-08-19T00:34:28;10.82;;;7.38;;
22236;SDS011;11287;48.122;11.536;2022-08-19T00:36:55;9.48;;;7.97;;
22236;SDS011;11287;48.122;11.536;2022-08-19T00:39:20;9.32;;;8.05;;
22236;SDS011;11287;48.122;11.536;2022-08-19T00:41:46;8.38;;;7.57;;
22236;SDS011;11287;48.122;11.536;2022-08-19T00:46:42;8.30;;;7.40;;
22236;SDS011;11287;48.122;11.536;2022-08-19T00:49:11;9.20;;;7.93;;
22236;SDS011;11287;48.122;11.536;2022-08-19T00:51:39;12.73;;;7.57;;
22236;SDS011;11287;48.122;11.536;2022-08-19T00:54:05;9.27;;;7.78;;
22236;SDS011;11287;48.122;11.536;2022-08-19T00:56:31;11.35;;;9.48;;
22236;SDS011;11287;48.122;11.536;2022-08-19T00:58:56;9.85;;;8.00;;
22236;SDS011;11287;48.122;11.536;2022-08-19T01:01:23;11.93;;;8.73;;
22236;SDS011;11287;48.122;11.536;2022-08-19T01:03:48;9.60;;;8.60;;
22236;SDS011;11287;48.122;11.536;2022-08-19T01:06:14;10.48;;;8.65;;
22236;SDS011;11287;48.122;11.536;2022-08-19T01:08:40;11.05;;;9.00;;
22236;SDS011;11287;48.122;11.536;2022-08-19T01:11:05;16.77;;;9.77;;
22236;SDS011;11287;48.122;11.536;2022-08-19T01:13:32;10.73;;;8.88;;
22236;SDS011;11287;48.122;11.536;2022-08-19T01:16:05;11.85;;;9.63;;
22236;SDS011;11287;48.122;11.536;2022-08-19T01:18:35;13.23;;;9.95;;
22236;SDS011;11287;48.122;11.536;2022-08-19T01:21:06;11.38;;;10.02;;
22236;SDS011;11287;48.122;11.536;2022-08-19T01:23:34;15.13;;;10.25;;
22236;SDS011;11287;48.122;11.536;2022-08-19T01:26:13;13.32;;;10.27;;
22236;SDS011;11287;48.122;11.536;2022-08-19T01:28:41;15.40;;;10.73;;
22236;SDS011;11287;48.122;11.536;2022-08-19T01:31:08;15.57;;;12.10;;
22236;SDS011;11287;48.122;11.536;2022-08-19T01:33:36;16.38;;;11.85;;
22236;SDS011;11287;48.122;11.536;2022-08-19T01:36:10;13.48;;;10.88;;
22236;SDS011;11287;48.122;11.536;2022-08-19T01:38:38;15.23;;;11.75;;
22236;SDS011;11287;48.122;11.536;2022-08-19T01:41:05;14.82;;;11.02;;
22236;SDS011;11287;48.122;11.536;2022-08-19T01:43:30;13.93;;;10.88;;
22236;SDS011;11287;48.122;11.536;2022-08-19T01:45:57;13.40;;;10.38;;
22236;SDS011;11287;48.122;11.536;2022-08-19T01:48:22;14.77;;;10.38;;
22236;SDS011;11287;48.122;11.536;2022-08-19T01:50:48;11.10;;;9.45;;
22236;SDS011;11287;48.122;11.536;2022-08-19T01:53:13;13.77;;;9.57;;
22236;SDS011;11287;48.122;11.536;2022-08-19T01:55:40;10.88;;;9.32;;
22236;SDS011;11287;48.122;11.536;2022-08-19T01:58:08;11.88;;;9.23;;
22236;SDS011;11287;48.122;11.536;2022-08-19T02:00:37;11.48;;;9.30;;
22236;SDS011;11287;48.122;11.536;2022-08-19T02:03:02;10.05;;;8.82;;
22236;SDS011;11287;48.122;11.536;2022-08-19T02:05:28;11.10;;;9.35;;
22236;SDS011;11287;48.122;11.536;2022-08-19T02:07:54;11.32;;;9.23;;
22236;SDS011;11287;48.122;11.536;2022-08-19T02:10:21;12.15;;;8.90;;
22236;SDS011;11287;48.122;11.536;2022-08-19T02:12:46;9.88;;;8.88;;
22236;SDS011;11287;48.122;11.536;2022-08-19T02:15:12;10.30;;;8.63;;
22236;SDS011;11287;48.122;11.536;2022-08-19T02:17:38;10.85;;;8.85;;
22236;SDS011;11287;48.122;11.536;2022-08-19T02:20:04;9.25;;;7.80;;
22236;SDS011;11287;48.122;11.536;2022-08-19T02:22:31;9.77;;;7.55;;
22236;SDS011;11287;48.122;11.536;2022-08-19T02:24:56;10.20;;;8.80;;
22236;SDS011;11287;48.122;11.536;2022-08-19T02:27:22;10.98;;;8.77;;
22236;SDS011;11287;48.122;11.536;2022-08-19T02:29:48;10.23;;;7.80;;
22236;SDS011;11287;48.122;11.536;2022-08-19T02:32:14;9.18;;;7.88;;
22236;SDS011;11287;48.122;11.536;2022-08-19T02:34:39;10.43;;;7.82;;
22236;SDS011;11287;48.122;11.536;2022-08-19T02:37:05;10.07;;;7.90;;
22236;SDS011;11287;48.122;11.536;2022-08-19T02:39:30;8.40;;;7.53;;
22236;SDS011;11287;48.122;11.536;2022-08-19T02:41:55;10.75;;;7.55;;
22236;SDS011;11287;48.122;11.536;2022-08-19T02:44:21;8.07;;;7.28;;
22236;SDS011;11287;48.122;11.536;2022-08-19T02:46:46;9.48;;;7.55;;
22236;SDS011;11287;48.122;11.536;2022-08-19T02:49:12;10.27;;;7.97;;
22236;SDS011;11287;48.122;11.536;2022-08-19T02:51:41;9.02;;;7.90;;
22236;SDS011;11287;48.122;11.536;2022-08-19T02:54:08;9.90;;;8.10;;
22236;SDS011;11287;48.122;11.536;2022-08-19T02:56:34;9.32;;;8.02;;
22236;SDS011;11287;48.122;11.536;2022-08-19T02:59:01;10.75;;;7.72;;
22236;SDS011;11287;48.122;11.536;2022-08-19T03:01:30;8.85;;;7.95;;
22236;SDS011;11287;48.122;11.536;2022-08-19T03:03:59;9.10;;;7.45;;
22236;SDS011;11287;48.122;11.536;2022-08-19T03:06:26;9.60;;;7.45;;
22236;SDS011;11287;48.122;11.536;2022-08-19T03:08:52;8.75;;;7.80;;
22236;SDS011;11287;48.122;11.536;2022-08-19T03:11:26;9.80;;;8.00;;
22236;SDS011;11287;48.122;11.536;2022-08-19T03:13:55;10.15;;;7.10;;
22236;SDS011;11287;48.122;11.536;2022-08-19T03:16:22;8.73;;;7.40;;
22236;SDS011;11287;48.122;11.536;2022-08-19T03:18:48;9.55;;;7.85;;
22236;SDS011;11287;48.122;11.536;2022-08-19T03:21:18;8.95;;;7.93;;
22236;SDS011;11287;48.122;11.536;2022-08-19T03:23:45;9.23;;;7.90;;
22236;SDS011;11287;48.122;11.536;2022-08-19T03:26:10;8.73;;;7.82;;
22236;SDS011;11287;48.122;11.536;2022-08-19T03:28:36;8.40;;;7.55;;
22236;SDS011;11287;48.122;11.536;2022-08-19T03:31:04;8.30;;;7.50;;
22236;SDS011;11287;48.122;11.536;2022-08-19T03:33:34;17.40;;;7.67;;
22236;SDS011;11287;48.122;11.536;2022-08-19T03:36:10;8.45;;;7.00;;
22236;SDS011;11287;48.122;11.536;2022-08-19T03:38:43;8.57;;;7.40;;
22236;SDS011;11287;48.122;11.536;2022-08-19T03:41:12;8.38;;;7.45;;
22236;SDS011;11287;48.122;11.536;2022-08-19T03:43:45;8.70;;;7.80;;
22236;SDS011;11287;48.122;11.536;2022-08-19T03:46:18;8.82;;;7.40;;
22236;SDS011;11287;48.122;11.536;2022-08-19T03:48:46;8.20;;;6.93;;
22236;SDS011;11287;48.122;11.536;2022-08-19T03:51:17;8.30;;;7.38;;
22236;SDS011;11287;48.122;11.536;2022-08-19T03:53:44;8.20;;;7.40;;
22236;SDS011;11287;48.122;11.536;2022-08-19T03:56:10;8.25;;;6.70;;
22236;SDS011;11287;48.122;11.536;2022-08-19T03:58:35;8.32;;;7.18;;
22236;SDS011;11287;48.122;11.536;2022-08-19T04:01:02;9.85;;;7.72;;
22236;SDS011;11287;48.122;11.536;2022-08-19T04:03:32;8.30;;;7.40;;
22236;SDS011;11287;48.122;11.536;2022-08-19T04:05:57;12.30;;;7.55;;
22236;SDS011;11287;48.122;11.536;2022-08-19T04:08:23;8.13;;;6.72;;
22236;SDS011;11287;48.122;11.536;2022-08-19T04:10:48;8.70;;;7.18;;
22236;SDS011;11287;48.122;11.536;2022-08-19T04:13:17;8.55;;;6.97;;
22236;SDS011;11287;48.122;11.536;2022-08-19T04:15:43;10.32;;;7.50;;
22236;SDS011;11287;48.122;11.536;2022-08-19T04:18:09;8.77;;;7.38;;
22236;SDS011;11287;48.122;11.536;2022-08-19T04:20:42;9.48;;;8.02;;
22236;SDS011;11287;48.122;11.536;2022-08-19T04:23:10;8.82;;;7.93;;
22236;SDS011;11287;48.122;11.536;2022-08-19T04:25:36;9.63;;;7.45;;
22236;SDS011;11287;48.122;11.536;2022-08-19T04:28:03;11.23;;;8.35;;
22236;SDS011;11287;48.122;11.536;2022-08-19T04:30:28;12.30;;;8.68;;
22236;SDS011;11287;48.122;11.536;2022-08-19T04:32:53;9.20;;;7.45;;
22236;SDS011;11287;48.122;11.536;2022-08-19T04:35:18;8.82;;;7.30;;
22236;SDS011;11287;48.122;11.536;2022-08-19T04:37:44;12.35;;;9.00;;
22236;SDS011;11287;48.122;11.536;2022-08-19T04:40:09;11.50;;;8.77;;
22236;SDS011;11287;48.122;11.536;2022-08-19T04:42:54;10.27;;;9.05;;
22236;SDS011;11287;48.122;11.536;2022-08-19T04:45:19;11.65;;;8.68;;
22236;SDS011;11287;48.122;11.536;2022-08-19T04:47:45;11.95;;;8.60;;
22236;SDS011;11287;48.122;11.536;2022-08-19T04:50:10;11.50;;;9.02;;
22236;SDS011;11287;48.122;11.536;2022-08-19T04:52:37;11.38;;;9.00;;
22236;SDS011;11287;48.122;11.536;2022-08-19T04:55:07;10.07;;;8.32;;
22236;SDS011;11287;48.122;11.536;2022-08-19T04:57:33;11.10;;;8.70;;
22236;SDS011;11287;48.122;11.536;2022-08-19T04:59:58;11.30;;;8.65;;
22236;SDS011;11287;48.122;11.536;2022-08-19T05:02:23;10.48;;;8.18;;
22236;SDS011;11287;48.122;11.536;2022-08-19T05:04:49;11.90;;;8.68;;
22236;SDS011;11287;48.122;11.536;2022-08-19T05:07:15;13.15;;;8.73;;
22236;SDS011;11287;48.122;11.536;2022-08-19T05:09:40;13.20;;;9.70;;
22236;SDS011;11287;48.122;11.536;2022-08-19T05:12:05;10.80;;;8.68;;
22236;SDS011;11287;48.122;11.536;2022-08-19T05:14:31;10.68;;;8.95;;
22236;SDS011;11287;48.122;11.536;2022-08-19T05:16:56;10.93;;;8.90;;
22236;SDS011;11287;48.122;11.536;2022-08-19T05:19:22;10.45;;;7.95;;
22236;SDS011;11287;48.122;11.536;2022-08-19T05:22:05;11.25;;;8.20;;
22236;SDS011;11287;48.122;11.536;2022-08-19T05:24:49;10.52;;;8.35;;
22236;SDS011;11287;48.122;11.536;2022-08-19T05:27:15;10.25;;;8.48;;
22236;SDS011;11287;48.122;11.536;2022-08-19T05:29:40;10.20;;;8.32;;
22236;SDS011;11287;48.122;11.536;2022-08-19T05:32:05;10.77;;;7.90;;
22236;SDS011;11287;48.122;11.536;2022-08-19T05:34:36;9.35;;;8.15;;
22236;SDS011;11287;48.122;11.536;2022-08-19T05:37:03;9.68;;;7.93;;
22236;SDS011;11287;48.122;11.536;2022-08-19T05:39:30;9.73;;;7.00;;
22236;SDS011;11287;48.122;11.536;2022-08-19T05:41:58;9.63;;;7.82;;
22236;SDS011;11287;48.122;11.536;2022-08-19T05:44:25;10.27;;;7.70;;
22236;SDS011;11287;48.122;11.536;2022-08-19T05:46:52;9.73;;;7.65;;
22236;SDS011;11287;48.122;11.536;2022-08-19T05:49:18;10.13;;;8.20;;
22236;SDS011;11287;48.122;11.536;2022-08-19T05:51:44;12.15;;;8.93;;
22236;SDS011;11287;48.122;11.536;2022-08-19T05:54:10;9.57;;;8.57;;
22236;SDS011;11287;48.122;11.536;2022-08-19T05:56:38;11.48;;;8.52;;
22236;SDS011;11287;48.122;11.536;2022-08-19T05:59:04;9.65;;;8.38;;
22236;SDS011;11287;48.122;11.536;2022-08-19T06:01:36;13.07;;;9.90;;
22236;SDS011;11287;48.122;11.536;2022-08-19T06:04:05;11.70;;;9.48;;
22236;SDS011;11287;48.122;11.536;2022-08-19T06:06:31;12.98;;;9.57;;
22236;SDS011;11287;48.122;11.536;2022-08-19T06:08:59;12.27;;;9.48;;
22236;SDS011;11287;48.122;11.536;2022-08-19T06:13:59;11.80;;;9.17;;
22236;SDS011;11287;48.122;11.536;2022-08-19T06:16:26;12.40;;;10.45;;
22236;SDS011;11287;48.122;11.536;2022-08-19T06:18:52;14.65;;;11.40;;
22236;SDS011;11287;48.122;11.536;2022-08-19T06:21:19;14.13;;;10.88;;
22236;SDS011;11287;48.122;11.536;2022-08-19T06:23:49;13.80;;;10.00;;
22236;SDS011;11287;48.122;11.536;2022-08-19T06:26:16;15.05;;;10.95;;
22236;SDS011;11287;48.122;11.536;2022-08-19T06:28:42;13.93;;;10.73;;
22236;SDS011;11287;48.122;11.536;2022-08-19T06:31:45;14.05;;;11.27;;
22236;SDS011;11287;48.122;11.536;2022-08-19T06:34:05;15.95;;;10.98;;
22236;SDS011;11287;48.122;11.536;2022-08-19T06:36:35;17.98;;;12.50;;
22236;SDS011;11287;48.122;11.536;2022-08-19T06:39:06;15.70;;;12.35;;
22236;SDS011;11287;48.122;11.536;2022-08-19T06:41:40;16.85;;;12.82;;
22236;SDS011;11287;48.122;11.536;2022-08-19T06:44:08;17.00;;;13.05;;
22236;SDS011;11287;48.122;11.536;2022-08-19T06:46:35;16.65;;;12.68;;
22236;SDS011;11287;48.122;11.536;2022-08-19T06:49:00;16.55;;;12.15;;
